»·PEaware :: XOJ550 KBUR-KSAN

XOJ550 :: KBUR-KSAN

FLIGHT INFORMATION

Flight Status: Arrived
Operator:
XOJET
More flights by this operator :: More flights under this callsign
Pilot: Charles S. (11412)
Aircraft: BOMBARDIER BD-100 CHALLENGER 300
(CL30)
More flights by this aircraft type
Origin: KBUR Bob Hope-Burbank
United States
Destination: KSAN San Diego Intl-Lindbergh
United States
More flights between these airports :: More routes between these airports
Route: +VNY3 TWINE V518 KIMMO V459 SLI SLI171 LAX118 CARDI MZB320 MLB
File this flight plan on PilotEdge
Remarks:
Altitude:
(Current/Filed)
11,000ft
Speed:
(Current/Filed)
270kts
Departed: 23-Aug-18 02:49 PM
Arrived: 23-Aug-18 03:23 PM
Distance/Time
Traveled:
106nm/0:34
Distance/Time
To Go:
Arrived

Flight Plot

Page will automatically refresh every two minutes.

Flight plan parsing failed; only flown route is shown


Map Options




Map Legend


Flown Route
Filed Route
Departure Airport
Arrival Airport
Navaid (VOR, NDB)
Fix

Horizontal Profiles

Position Reports

Time Latitude Longitude Heading Altitude Ground
Speed
23-Aug-18 14:32 34.200033 -118.358621 263 783ft 0kts
23-Aug-18 14:33 34.200033 -118.358621 263 783ft 0kts
23-Aug-18 14:34 34.200033 -118.358621 263 783ft 0kts
23-Aug-18 14:35 34.200033 -118.358621 263 783ft 0kts
23-Aug-18 14:36 34.200033 -118.358621 263 783ft 0kts
23-Aug-18 14:37 34.200033 -118.358621 263 783ft 0kts
23-Aug-18 14:38 34.200033 -118.358621 263 783ft 0kts
23-Aug-18 14:39 34.200033 -118.358621 263 783ft 0kts
23-Aug-18 14:40 34.200033 -118.358621 263 783ft 0kts
23-Aug-18 14:41 34.200033 -118.358621 263 783ft 0kts
23-Aug-18 14:42 34.200033 -118.358621 263 783ft 0kts
23-Aug-18 14:43 34.200027 -118.358685 263 783ft 0kts
23-Aug-18 14:44 34.200025 -118.358982 294 783ft 10kts
23-Aug-18 14:45 34.201665 -118.359267 75 783ft 0kts
23-Aug-18 14:46 34.203174 -118.359091 349 783ft 27kts
23-Aug-18 14:47 34.208265 -118.360476 347 783ft 18kts
23-Aug-18 14:48 34.211896 -118.361422 24 783ft 0kts
23-Aug-18 14:49 34.211959 -118.361380 31 783ft 3kts
23-Aug-18 14:50 34.196818 -118.356275 167 1343ft 171kts
23-Aug-18 14:51 34.154870 -118.381696 225 4013ft 191kts
23-Aug-18 14:52 34.142003 -118.432618 331 4817ft 206kts
23-Aug-18 14:53 34.205204 -118.446067 351 7587ft 256kts
23-Aug-18 14:54 34.272679 -118.437122 58 10583ft 268kts
23-Aug-18 14:55 34.255401 -118.355563 122 11019ft 265kts
23-Aug-18 14:56 34.208478 -118.291867 156 11024ft 260kts
23-Aug-18 14:57 34.131531 -118.252508 157 11037ft 320kts
23-Aug-18 14:58 34.049521 -118.207079 156 11071ft 343kts
23-Aug-18 14:59 33.965226 -118.159068 156 11083ft 342kts
23-Aug-18 15:00 33.884954 -118.113045 155 11056ft 341kts
23-Aug-18 15:01 33.799786 -118.064822 163 11029ft 340kts
23-Aug-18 15:02 33.706984 -118.068291 186 11042ft 337kts
23-Aug-18 15:03 33.621149 -118.039797 139 11055ft 344kts
23-Aug-18 15:04 33.553136 -117.960383 135 11056ft 344kts
23-Aug-18 15:05 33.487344 -117.877127 134 11072ft 345kts
23-Aug-18 15:06 33.422427 -117.793091 134 11065ft 345kts
23-Aug-18 15:07 33.356610 -117.707474 133 11112ft 357kts
23-Aug-18 15:08 33.290168 -117.621050 133 11072ft 356kts
23-Aug-18 15:09 33.223403 -117.534358 133 10993ft 356kts
23-Aug-18 15:10 33.156481 -117.447687 133 10996ft 355kts
23-Aug-18 15:11 33.078387 -117.391780 155 10178ft 286kts
23-Aug-18 15:12 33.009042 -117.351831 156 8796ft 273kts
23-Aug-18 15:13 32.943533 -117.314989 156 7439ft 270kts
23-Aug-18 15:14 32.877584 -117.278270 157 6979ft 269kts
23-Aug-18 15:15 32.816539 -117.231112 108 6984ft 276kts
23-Aug-18 15:16 32.823949 -117.140966 81 6481ft 276kts
23-Aug-18 15:17 32.834755 -117.051866 82 5283ft 271kts
23-Aug-18 15:18 32.814317 -116.987687 167 5045ft 229kts
23-Aug-18 15:19 32.748609 -116.991431 191 5151ft 216kts
23-Aug-18 15:20 32.709851 -117.033837 263 3569ft 224kts
23-Aug-18 15:21 32.711724 -117.099742 284 1743ft 168kts
23-Aug-18 15:22 32.723217 -117.147483 285 733ft 127kts
23-Aug-18 15:23 32.732490 -117.185361 285 19ft 99kts
23-Aug-18 15:24 32.734184 -117.194954 225 20ft 7kts
23-Aug-18 15:25 32.733362 -117.193127 106 20ft 21kts
23-Aug-18 15:26 32.734594 -117.189173 106 20ft 13kts
23-Aug-18 15:27 32.732545 -117.180721 105 20ft 27kts
23-Aug-18 15:28 32.732422 -117.176810 106 24ft 0kts

Navigation Log

Ident Type
Flight plan parsing failed, navigation log unavailable